Alex, Minnesota
Current Conditions -  °F | °C
As of 10:53 PM on Friday 28 Nov 2014 (Local Time) from KAXN Reporting Station
Overcast Overcast  
Wind Chill:   Ceiling: 900
Heat Index: 19°   Visibility: 8mi
Dew Point: 15°   Wind: 13mph
Humidity: 85%   Direction: 140°SE
Pressure: 29.6"   Gusts: NA
Location:  45.8551°N, 95.4333°W
Report Text: KAXN 290453Z AUTO 14011KT 8SM OVC009 M07/M09 A2960 RMK AO2 SLP052 T10721094
Loading
Personal Weather Stations






























Interactive Weather Map New forecast layout! Learn more

10-Day Weather Forecast

Advertisements
Track Severe Weather on mobile